Eglin AFB, Florida
Current Conditions -  °F | °C
As of 4:55 PM on Wednesday 22 Oct 2014 (Local Time) from KVPS Reporting Station
Few Clouds Few Clouds  
Wind Chill: 77°   Ceiling: Unl
Heat Index: 78°   Visibility: 10mi
Dew Point: 43°   Wind: 12mph
Humidity: 30%   Direction: 20°NNE
Pressure: 30"   Gusts: NA
Location:  30.46°N, 86.55°W
Report Text: KVPS 222155Z 02010KT 10SM FEW250 25/06 A3000 RMK AO2A SLP165 T02520063 $
Loading
Personal Weather Stations






























Interactive Weather Map
Tropical Storm Tracking
New forecast layout! Learn more

10-Day Weather Forecast

Advertisements
Track Severe Weather on mobile